createdAt,value
2018-12-13T00:00:20.172Z,27.23
2018-12-13T00:02:53.718Z,25.97
2018-12-13T00:05:26.078Z,24.80
2018-12-13T00:07:57.884Z,26.27
2018-12-13T00:10:32.315Z,26.13
2018-12-13T00:13:03.380Z,25.73
2018-12-13T00:15:38.320Z,24.57
2018-12-13T00:18:09.406Z,25.37
2018-12-13T00:20:41.071Z,26.97
2018-12-13T00:23:12.836Z,26.23
2018-12-13T00:25:44.870Z,28.03
2018-12-13T00:28:16.219Z,26.67
2018-12-13T00:30:49.004Z,24.70
2018-12-13T00:33:20.488Z,28.10
2018-12-13T00:35:52.836Z,25.53
2018-12-13T00:38:24.418Z,25.43
2018-12-13T00:40:55.955Z,24.00
2018-12-13T00:43:27.653Z,25.73
2018-12-13T00:46:03.698Z,27.90
2018-12-13T00:48:34.660Z,25.80
2018-12-13T00:51:06.969Z,24.57
2018-12-13T00:53:40.311Z,23.53
2018-12-13T00:56:15.732Z,24.63
2018-12-13T00:58:49.308Z,24.53
2018-12-13T01:01:19.782Z,21.60
2018-12-13T01:03:51.594Z,23.07
2018-12-13T01:06:23.520Z,24.93
2018-12-13T01:08:55.028Z,23.20
2018-12-13T01:11:27.126Z,24.77
2018-12-13T01:13:58.344Z,21.73
2018-12-13T01:16:30.552Z,24.50
2018-12-13T01:19:01.773Z,21.73
2018-12-13T01:21:33.636Z,23.03
2018-12-13T01:24:04.908Z,24.60
2018-12-13T01:26:36.970Z,24.93
2018-12-13T01:29:08.271Z,22.27
2018-12-13T01:31:42.278Z,24.07
2018-12-13T01:34:13.399Z,21.90
2018-12-13T01:36:52.276Z,23.37
2018-12-13T01:39:19.733Z,22.50
2018-12-13T01:41:52.090Z,24.67
2018-12-13T01:44:23.655Z,21.97
2018-12-13T01:46:55.608Z,22.30
2018-12-13T01:49:26.837Z,22.47
2018-12-13T01:51:58.511Z,21.10
2018-12-13T01:54:29.848Z,20.80
2018-12-13T01:57:03.902Z,25.00
2018-12-13T01:59:34.931Z,21.70
2018-12-13T02:02:10.123Z,21.97
2018-12-13T02:04:41.289Z,19.00
2018-12-13T02:07:12.981Z,20.07
2018-12-13T02:09:46.933Z,20.03
2018-12-13T02:12:22.758Z,20.00
2018-12-13T02:14:55.574Z,20.07
2018-12-13T02:17:28.196Z,18.93
2018-12-13T02:19:59.637Z,19.97
2018-12-13T02:22:31.189Z,21.17
2018-12-13T02:25:07.940Z,20.90
2018-12-13T02:27:42.872Z,22.87
2018-12-13T02:30:17.253Z,23.30
2018-12-13T02:32:51.048Z,23.50
2018-12-13T02:35:23.089Z,23.73
2018-12-13T02:37:54.483Z,24.30
2018-12-13T02:40:28.354Z,24.07
2018-12-13T02:43:00.673Z,26.93
2018-12-13T02:45:32.139Z,25.97
2018-12-13T02:48:07.023Z,27.43
2018-12-13T02:50:38.173Z,29.83
2018-12-13T02:53:12.950Z,28.83
2018-12-13T02:55:44.232Z,30.07
2018-12-13T02:58:16.870Z,24.07
2018-12-13T03:00:48.310Z,25.90
2018-12-13T03:03:20.086Z,25.37
2018-12-13T03:05:51.424Z,27.07
2018-12-13T03:08:25.354Z,27.63
2018-12-13T03:10:56.583Z,25.97
2018-12-13T03:13:30.510Z,24.77
2018-12-13T03:16:03.577Z,25.27
2018-12-13T03:18:35.418Z,24.10
2018-12-13T03:21:08.888Z,27.07
2018-12-13T03:23:42.009Z,25.10
2018-12-13T03:26:13.737Z,26.07
2018-12-13T03:28:48.002Z,22.90
2018-12-13T03:31:21.298Z,26.63
2018-12-13T03:33:56.127Z,26.40
2018-12-13T03:36:27.909Z,24.73
2018-12-13T03:38:59.449Z,27.03
2018-12-13T03:41:31.160Z,25.40
2018-12-13T03:44:03.705Z,27.53
2018-12-13T03:46:34.930Z,28.67
2018-12-13T03:49:07.181Z,24.73
2018-12-13T03:51:38.773Z,26.20
2018-12-13T03:54:12.379Z,26.27
2018-12-13T03:56:46.121Z,25.27
2018-12-13T03:59:21.076Z,27.03
2018-12-13T04:01:52.380Z,29.03
2018-12-13T04:04:26.919Z,28.67
2018-12-13T04:06:58.157Z,27.57
2018-12-13T04:09:32.117Z,25.07
2018-12-13T04:12:03.370Z,28.83
2018-12-13T04:14:35.504Z,24.53
2018-12-13T04:17:09.785Z,28.40
2018-12-13T04:19:41.757Z,30.23
2018-12-13T04:22:15.454Z,27.83
2018-12-13T04:24:49.854Z,28.70
2018-12-13T04:27:21.281Z,28.37
2018-12-13T04:29:55.049Z,26.23
2018-12-13T04:32:25.997Z,29.43
2018-12-13T04:34:58.335Z,31.00
2018-12-13T04:37:35.225Z,30.37
2018-12-13T04:40:06.316Z,32.00
2018-12-13T04:42:37.965Z,32.70
2018-12-13T04:45:13.475Z,29.07
2018-12-13T04:47:47.535Z,33.03
2018-12-13T04:50:19.020Z,31.50
2018-12-13T04:52:50.448Z,28.30
2018-12-13T04:55:25.756Z,33.17
2018-12-13T04:57:59.394Z,29.87
2018-12-13T05:00:33.665Z,34.57
2018-12-13T05:03:04.704Z,36.40
2018-12-13T05:05:39.733Z,38.10
2018-12-13T05:08:10.964Z,30.90
2018-12-13T05:10:51.011Z,33.47
2018-12-13T05:13:22.530Z,32.67
2018-12-13T05:15:56.752Z,30.30
2018-12-13T05:18:27.948Z,34.23
2018-12-13T05:21:02.566Z,34.63
2018-12-13T05:23:34.248Z,33.27
2018-12-13T05:26:08.292Z,37.90
2018-12-13T05:28:40.071Z,32.77
2018-12-13T05:31:12.022Z,28.97
2018-12-13T05:33:45.900Z,31.07
2018-12-13T05:36:21.848Z,31.93
2018-12-13T05:38:55.846Z,32.33
2018-12-13T05:41:30.476Z,29.90
2018-12-13T05:44:01.372Z,33.57
2018-12-13T05:46:33.300Z,31.33
2018-12-13T05:49:07.014Z,33.13
2018-12-13T05:51:39.500Z,32.33
2018-12-13T05:54:10.382Z,30.27
2018-12-13T05:56:44.683Z,31.57
2018-12-13T05:59:18.140Z,31.00
2018-12-13T06:01:53.211Z,26.77
2018-12-13T06:04:25.752Z,28.10
2018-12-13T06:07:03.218Z,29.00
2018-12-13T06:09:34.896Z,30.57
2018-12-13T06:12:07.424Z,28.37
2018-12-13T06:14:41.368Z,30.23
2018-12-13T06:17:16.987Z,27.07
2018-12-13T06:19:50.240Z,24.43
2018-12-13T06:22:22.428Z,28.77
2018-12-13T06:24:57.570Z,30.07
2018-12-13T06:27:29.877Z,35.90
2018-12-13T06:30:07.215Z,31.43
2018-12-13T06:32:38.262Z,29.83
2018-12-13T06:35:09.671Z,30.43
2018-12-13T06:37:41.517Z,29.07
2018-12-13T06:40:15.653Z,30.17
2018-12-13T06:42:48.481Z,32.53
2018-12-13T06:45:19.599Z,32.30
2018-12-13T06:47:54.266Z,28.87
2018-12-13T06:50:29.084Z,28.03
2018-12-13T06:53:01.177Z,31.10
2018-12-13T06:55:32.594Z,31.43
2018-12-13T06:58:08.562Z,29.90
2018-12-13T07:00:40.318Z,28.83
2018-12-13T07:03:12.637Z,31.77
2018-12-13T07:05:43.417Z,32.77
2018-12-13T07:08:22.046Z,30.20
2018-12-13T07:10:53.060Z,32.07
2018-12-13T07:13:25.493Z,31.47
2018-12-13T07:15:57.280Z,34.20
2018-12-13T07:18:28.785Z,30.17
2018-12-13T07:21:00.606Z,34.37
2018-12-13T07:23:35.063Z,36.30
2018-12-13T07:26:06.842Z,31.43
2018-12-13T07:28:41.349Z,33.20
2018-12-13T07:31:12.917Z,32.97
2018-12-13T07:33:46.719Z,33.50
2018-12-13T07:36:20.302Z,32.97
2018-12-13T07:38:54.491Z,32.77
2018-12-13T07:41:26.032Z,34.30
2018-12-13T07:44:02.529Z,33.80
2018-12-13T07:46:33.952Z,32.97
2018-12-13T07:49:06.800Z,33.13
2018-12-13T07:51:37.742Z,32.97
2018-12-13T07:54:11.728Z,32.23
2018-12-13T07:56:45.145Z,32.60
2018-12-13T07:59:18.780Z,32.67
2018-12-13T08:01:52.751Z,39.40
2018-12-13T08:04:30.154Z,33.33
2018-12-13T08:07:01.963Z,34.67
2018-12-13T08:09:34.494Z,33.10
2018-12-13T08:12:06.246Z,34.40
2018-12-13T08:14:37.984Z,31.43
2018-12-13T08:17:17.722Z,34.47
2018-12-13T08:19:51.560Z,32.67
2018-12-13T08:22:22.864Z,35.47
2018-12-13T08:24:55.402Z,34.90
2018-12-13T08:27:26.981Z,34.27
2018-12-13T08:29:58.663Z,33.60
2018-12-13T08:32:30.277Z,33.10
2018-12-13T08:35:02.305Z,31.83
2018-12-13T08:37:33.345Z,35.87
2018-12-13T08:40:12.537Z,35.87
2018-12-13T08:42:43.576Z,32.43
2018-12-13T08:45:17.812Z,33.83
2018-12-13T08:47:49.541Z,32.23
2018-12-13T08:50:23.849Z,34.83
2018-12-13T08:52:55.461Z,36.27
2018-12-13T08:55:31.265Z,34.53
2018-12-13T08:58:05.343Z,34.97
2018-12-13T09:00:37.579Z,34.37
2018-12-13T09:03:09.102Z,32.77
2018-12-13T09:05:43.314Z,33.23
2018-12-13T09:08:17.103Z,37.97
2018-12-13T09:10:49.238Z,32.90
2018-12-13T09:13:20.825Z,35.50
2018-12-13T09:15:53.405Z,37.80
2018-12-13T09:18:24.702Z,38.57
2018-12-13T09:20:59.014Z,40.70
2018-12-13T09:23:30.747Z,41.37
2018-12-13T09:26:02.383Z,41.53
2018-12-13T09:28:32.081Z,43.43
2018-12-13T09:31:04.783Z,41.50
2018-12-13T09:33:38.451Z,40.17
2018-12-13T09:36:11.755Z,38.00
2018-12-13T09:38:45.638Z,41.73
2018-12-13T09:41:17.625Z,41.00
2018-12-13T09:43:51.380Z,43.70
2018-12-13T09:46:23.417Z,41.57
2018-12-13T09:48:57.618Z,161.03
2018-12-13T09:51:29.567Z,53.17
2018-12-13T09:54:01.296Z,35.90
2018-12-13T09:56:32.801Z,46.23
2018-12-13T09:59:11.041Z,43.50
2018-12-13T10:01:43.083Z,47.07
2018-12-13T10:04:14.653Z,36.73
2018-12-13T10:06:46.935Z,34.57
2018-12-13T10:09:18.341Z,33.23
2018-12-13T10:11:52.075Z,35.53
2018-12-13T10:14:23.142Z,35.13
2018-12-13T10:16:56.835Z,32.50
2018-12-13T10:19:28.084Z,30.83
2018-12-13T10:22:11.495Z,32.20
2018-12-13T10:24:39.671Z,26.93
2018-12-13T10:27:13.589Z,26.97
2018-12-13T10:29:45.128Z,28.07
2018-12-13T10:32:19.888Z,23.67
2018-12-13T10:34:51.054Z,24.77
2018-12-13T10:37:23.424Z,25.63
2018-12-13T10:39:55.908Z,25.13
2018-12-13T10:42:30.794Z,23.43
2018-12-13T10:45:05.628Z,22.00
2018-12-13T10:47:41.498Z,19.47
2018-12-13T10:50:13.411Z,18.80
2018-12-13T10:52:51.580Z,16.07
2018-12-13T10:55:22.530Z,16.60
2018-12-13T10:57:54.216Z,16.43
2018-12-13T11:00:31.112Z,15.80
2018-12-13T11:03:28.510Z,19.90
2018-12-13T11:06:02.047Z,19.40
2018-12-13T11:08:34.355Z,18.13
2018-12-13T11:11:05.615Z,18.40
2018-12-13T11:13:37.778Z,19.27
2018-12-13T11:16:09.371Z,15.43
2018-12-13T11:18:41.932Z,16.03
2018-12-13T11:21:17.427Z,17.50
2018-12-13T11:23:47.681Z,13.73
2018-12-13T11:26:21.509Z,14.00
2018-12-13T11:30:30.616Z,16.40
2018-12-13T11:33:04.776Z,14.70
2018-12-13T11:35:38.944Z,14.00
2018-12-13T11:38:10.275Z,14.27
2018-12-13T11:40:41.939Z,17.30
2018-12-13T11:43:13.606Z,14.53
2018-12-13T11:45:48.710Z,18.60
2018-12-13T11:48:19.795Z,12.87
2018-12-13T11:51:15.664Z,12.87
2018-12-13T11:53:47.178Z,17.23
2018-12-13T11:56:22.271Z,15.00
2018-12-13T11:58:56.605Z,15.10
2018-12-13T12:01:27.915Z,14.90
2018-12-13T12:04:01.451Z,14.57
2018-12-13T12:06:32.865Z,15.00
2018-12-13T12:09:12.046Z,16.17
2018-12-13T12:11:39.381Z,13.50
2018-12-13T12:14:11.853Z,12.97
2018-12-13T12:16:43.306Z,14.37
2018-12-13T12:19:19.731Z,12.97
2018-12-13T12:21:51.218Z,14.97
2018-12-13T12:24:23.783Z,13.67
2018-12-13T12:26:57.514Z,12.17
2018-12-13T12:29:29.724Z,13.77
2018-12-13T12:32:00.948Z,13.90
2018-12-13T12:34:34.589Z,12.30
2018-12-13T12:37:08.253Z,13.40
2018-12-13T12:39:45.725Z,13.47
2018-12-13T12:42:16.955Z,12.00
2018-12-13T12:44:49.760Z,15.83
2018-12-13T12:47:21.090Z,13.07
2018-12-13T12:49:54.465Z,13.07
2018-12-13T12:52:26.299Z,13.43
2018-12-13T12:54:58.817Z,12.37
2018-12-13T12:57:30.378Z,13.90
2018-12-13T13:00:01.858Z,12.77
2018-12-13T13:02:33.702Z,16.63
2018-12-13T13:05:05.187Z,14.07
2018-12-13T13:07:36.800Z,12.90
2018-12-13T13:10:08.368Z,12.30
2018-12-13T13:12:39.964Z,13.47
2018-12-13T13:15:11.944Z,11.63
2018-12-13T13:17:45.406Z,11.30
2018-12-13T13:20:17.539Z,15.27
2018-12-13T13:22:49.057Z,12.30
2018-12-13T13:25:21.359Z,12.67
2018-12-13T13:27:55.434Z,13.20
2018-12-13T13:35:25.062Z,11.37
2018-12-13T13:37:58.720Z,11.23
2018-12-13T13:40:33.529Z,14.67
2018-12-13T13:43:04.529Z,14.17
2018-12-13T13:45:36.112Z,13.30
2018-12-13T13:48:10.276Z,14.33
2018-12-13T13:50:42.820Z,11.80
2018-12-13T13:53:14.038Z,11.40
2018-12-13T13:55:47.604Z,10.97
2018-12-13T13:58:18.831Z,12.63
2018-12-13T14:00:50.784Z,10.27
2018-12-13T14:03:23.269Z,11.43
2018-12-13T14:05:55.866Z,13.03
2018-12-13T14:08:27.402Z,12.43
2018-12-13T14:10:59.500Z,14.83
2018-12-13T14:13:37.071Z,11.80
2018-12-13T14:16:10.195Z,11.57
2018-12-13T14:18:43.547Z,12.83
2018-12-13T14:21:19.599Z,12.53
2018-12-13T14:23:50.029Z,11.00
2018-12-13T14:26:24.843Z,14.23
2018-12-13T14:28:58.699Z,14.43
2018-12-13T14:31:37.013Z,12.90
2018-12-13T14:34:11.130Z,14.47
2018-12-13T14:36:46.268Z,14.20
2018-12-13T14:39:17.727Z,14.47
2018-12-13T14:41:51.425Z,12.67
2018-12-13T14:44:28.484Z,12.87
2018-12-13T14:47:02.104Z,15.27
2018-12-13T14:49:33.474Z,13.43
2018-12-13T14:52:07.084Z,12.03
2018-12-13T14:54:42.535Z,14.37
2018-12-13T14:57:14.863Z,13.47
2018-12-13T14:59:47.150Z,13.07
2018-12-13T15:02:25.249Z,13.50
2018-12-13T15:04:57.426Z,11.67
2018-12-13T15:07:29.589Z,13.40
2018-12-13T15:10:05.601Z,13.77
2018-12-13T15:12:46.152Z,14.03
2018-12-13T15:15:17.839Z,14.90
2018-12-13T15:17:50.425Z,13.50
2018-12-13T15:20:24.302Z,17.33
2018-12-13T15:23:05.256Z,14.97
2018-12-13T15:25:40.304Z,14.23
2018-12-13T15:28:12.940Z,18.67
2018-12-13T15:30:46.272Z,15.63
2018-12-13T15:33:26.007Z,13.60
2018-12-13T15:35:58.012Z,13.13
2018-12-13T15:38:30.436Z,16.17
2018-12-13T15:41:01.954Z,16.97
2018-12-13T15:43:34.758Z,14.27
2018-12-13T15:46:08.565Z,15.83
2018-12-13T15:48:42.697Z,16.57
2018-12-13T15:51:13.748Z,15.67
2018-12-13T15:53:46.803Z,17.23
2018-12-13T15:56:18.554Z,15.87
2018-12-13T15:58:51.248Z,14.97
2018-12-13T16:01:22.297Z,14.17
2018-12-13T16:03:54.320Z,16.30
2018-12-13T16:06:25.606Z,16.73
2018-12-13T16:08:57.258Z,16.23
2018-12-13T16:11:30.881Z,16.47
2018-12-13T16:14:03.404Z,15.50
2018-12-13T16:16:34.844Z,19.90
2018-12-13T16:19:14.983Z,16.00
2018-12-13T16:21:49.678Z,17.50
2018-12-13T16:24:21.327Z,15.43
2018-12-13T16:26:52.465Z,16.57
2018-12-13T16:29:24.701Z,17.43
2018-12-13T16:31:56.596Z,16.30
2018-12-13T16:34:29.601Z,18.13
2018-12-13T16:37:03.675Z,17.03
2018-12-13T16:39:35.763Z,15.10
2018-12-13T16:42:07.002Z,18.03
2018-12-13T16:44:41.311Z,16.87
2018-12-13T16:47:12.300Z,16.13
2018-12-13T16:49:52.537Z,19.87
2018-12-13T16:52:22.796Z,17.90
2018-12-13T16:54:55.105Z,20.03
2018-12-13T16:57:28.867Z,17.93
2018-12-13T17:00:01.537Z,17.50
2018-12-13T17:02:32.822Z,21.63
2018-12-13T17:05:04.802Z,20.27
2018-12-13T17:07:38.536Z,20.30
2018-12-13T17:10:16.579Z,19.00
2018-12-13T17:12:46.491Z,18.80
2018-12-13T17:15:20.924Z,18.80
2018-12-13T17:17:54.293Z,18.40
2018-12-13T17:20:31.003Z,20.23
2018-12-13T17:23:01.997Z,22.00
2018-12-13T17:25:34.425Z,17.17
2018-12-13T17:28:07.997Z,18.30
2018-12-13T17:30:48.877Z,18.90
2018-12-13T17:33:20.302Z,20.20
2018-12-13T17:35:53.036Z,22.07
2018-12-13T17:38:24.429Z,17.67
2018-12-13T17:40:58.376Z,20.60
2018-12-13T17:43:29.610Z,17.73
2018-12-13T17:46:01.395Z,19.30
2018-12-13T17:48:32.692Z,20.63
2018-12-13T17:51:05.137Z,20.13
2018-12-13T17:53:36.406Z,19.93
2018-12-13T17:56:09.616Z,20.80
2018-12-13T17:58:40.591Z,20.10
2018-12-13T18:01:15.180Z,21.43
2018-12-13T18:03:49.095Z,22.37
2018-12-13T18:06:23.164Z,17.93
2018-12-13T18:08:54.923Z,20.20
2018-12-13T18:11:26.962Z,23.37
2018-12-13T18:14:00.506Z,23.23
2018-12-13T18:16:46.132Z,19.20
2018-12-13T18:22:18.370Z,23.57
2018-12-13T18:30:36.961Z,19.93
2018-12-13T18:36:13.712Z,20.10
2018-12-13T18:47:25.112Z,24.80
2018-12-13T18:50:06.025Z,21.63
2018-12-13T18:58:16.777Z,24.57
2018-12-13T19:00:50.992Z,21.97
2018-12-13T19:09:08.648Z,23.67
2018-12-13T19:11:48.572Z,23.47
2018-12-13T19:14:32.543Z,24.43
2018-12-13T19:17:04.600Z,20.13
2018-12-13T19:19:35.715Z,22.93
2018-12-13T19:22:09.794Z,22.90
2018-12-13T19:24:46.529Z,21.97
2018-12-13T19:27:21.194Z,28.10
2018-12-13T19:29:50.978Z,22.20
2018-12-13T19:32:24.679Z,25.00
2018-12-13T19:35:02.130Z,22.90
2018-12-13T19:37:34.707Z,25.23
2018-12-13T19:40:06.504Z,25.30
2018-12-13T19:42:38.625Z,26.60
2018-12-13T19:45:14.143Z,22.63
2018-12-13T19:47:46.446Z,26.13
2018-12-13T19:50:20.327Z,27.53
2018-12-13T19:52:53.857Z,26.43
2018-12-13T19:55:28.155Z,30.53
2018-12-13T19:58:00.123Z,27.67
2018-12-13T20:00:31.735Z,25.13
2018-12-13T20:03:03.199Z,26.50
2018-12-13T20:05:39.431Z,28.13
2018-12-13T20:08:14.190Z,25.53
2018-12-13T20:10:54.431Z,25.30
2018-12-13T20:13:22.351Z,26.27
2018-12-13T20:15:58.254Z,28.17
2018-12-13T20:18:32.621Z,24.83
2018-12-13T20:21:06.227Z,28.67
2018-12-13T20:23:40.915Z,29.83
2018-12-13T20:26:13.985Z,27.63
2018-12-13T20:28:48.937Z,29.17
2018-12-13T20:31:20.780Z,28.27
2018-12-13T20:33:55.426Z,27.90
2018-12-13T20:36:25.048Z,31.37
2018-12-13T20:38:57.490Z,28.60
2018-12-13T20:41:28.985Z,28.57
2018-12-13T20:44:04.107Z,27.93
2018-12-13T20:46:38.277Z,25.73
2018-12-13T20:49:10.996Z,31.63
2018-12-13T20:51:42.909Z,32.97
2018-12-13T20:54:17.489Z,29.40
2018-12-13T20:56:48.565Z,32.13
2018-12-13T20:59:20.272Z,31.73
2018-12-13T21:01:51.680Z,37.57
2018-12-13T21:04:25.914Z,35.00
2018-12-13T21:09:25.816Z,36.17
2018-12-13T21:11:57.032Z,34.50
2018-12-13T21:19:26.609Z,32.93
2018-12-13T21:24:27.486Z,32.23
2018-12-13T21:26:58.886Z,31.30
2018-12-13T21:29:31.367Z,30.27
2018-12-13T21:32:03.362Z,34.50
2018-12-13T21:34:38.317Z,30.60
2018-12-13T21:37:10.110Z,30.73
2018-12-13T21:39:42.103Z,30.47
2018-12-13T21:42:16.517Z,32.57
2018-12-13T21:44:49.265Z,30.07
2018-12-13T21:47:20.782Z,34.23
2018-12-13T21:49:52.717Z,34.70
2018-12-13T21:52:24.162Z,42.10
2018-12-13T21:54:58.687Z,37.07
2018-12-13T21:57:30.126Z,33.83
2018-12-13T22:00:03.449Z,40.07
2018-12-13T22:02:35.022Z,37.20
2018-12-13T22:05:08.336Z,31.97
2018-12-13T22:07:42.475Z,36.60
2018-12-13T22:10:12.513Z,35.90
2018-12-13T22:12:46.629Z,35.17
2018-12-13T22:15:18.685Z,36.57
2018-12-13T22:17:50.448Z,38.17
2018-12-13T22:20:25.138Z,32.63
2018-12-13T22:25:26.542Z,32.10
2018-12-13T22:27:57.731Z,44.80
2018-12-13T22:30:29.424Z,33.37
2018-12-13T22:33:03.321Z,32.03
2018-12-13T22:35:38.381Z,32.60
2018-12-13T22:38:09.261Z,30.33
2018-12-13T22:40:43.228Z,29.77
2018-12-13T22:43:20.433Z,32.83
2018-12-13T22:45:49.014Z,29.30
2018-12-13T22:48:22.676Z,29.87
2018-12-13T22:50:55.589Z,32.20
2018-12-13T22:53:29.521Z,33.27
2018-12-13T22:56:02.364Z,37.10
2018-12-13T22:58:36.091Z,33.07
2018-12-13T23:01:08.325Z,31.63
2018-12-13T23:03:39.833Z,26.57
2018-12-13T23:06:14.082Z,34.53
2018-12-13T23:08:48.138Z,31.43
2018-12-13T23:11:20.180Z,33.83
2018-12-13T23:13:51.407Z,32.17
2018-12-13T23:16:25.682Z,31.17
2018-12-13T23:18:56.602Z,31.37
2018-12-13T23:21:27.759Z,31.17
2018-12-13T23:23:59.341Z,28.97
2018-12-13T23:26:31.494Z,28.40
2018-12-13T23:29:03.279Z,28.30
2018-12-13T23:31:35.712Z,30.97
2018-12-13T23:34:08.740Z,32.53
2018-12-13T23:36:40.340Z,30.23
2018-12-13T23:39:14.475Z,30.93
2018-12-13T23:41:48.879Z,33.53
2018-12-13T23:44:21.856Z,28.37
2018-12-13T23:46:55.793Z,31.77
2018-12-13T23:49:26.686Z,30.50
2018-12-13T23:51:59.078Z,31.83
2018-12-13T23:54:31.887Z,34.57
2018-12-13T23:57:04.262Z,30.37
2018-12-13T23:59:35.912Z,31.73
